createdAt,value
2018-06-21T00:00:02.784Z,25.1
2018-06-21T00:01:05.107Z,25.1
2018-06-21T00:02:09.486Z,25.1
2018-06-21T00:03:06.825Z,25.1
2018-06-21T00:04:05.008Z,25.1
2018-06-21T00:05:05.559Z,25.1
2018-06-21T00:05:59.939Z,25.1
2018-06-21T00:07:00.073Z,25.1
2018-06-21T00:08:04.927Z,25.1
2018-06-21T00:09:02.313Z,25.1
2018-06-21T00:09:11.481Z,25.1
2018-06-21T00:10:11.608Z,25.1
2018-06-21T00:11:09.298Z,25.1
2018-06-21T00:12:20.770Z,25.1
2018-06-21T00:13:18.546Z,25.1
2018-06-21T00:14:24.296Z,25
2018-06-21T00:15:25.259Z,25.1
2018-06-21T00:16:25.713Z,25
2018-06-21T00:17:28.783Z,25.1
2018-06-21T00:18:26.050Z,25.1
2018-06-21T00:19:25.510Z,25.1
2018-06-21T00:21:25.799Z,25.1
2018-06-21T00:22:23.855Z,25.1
2018-06-21T00:23:33.399Z,25.1
2018-06-21T00:24:31.385Z,25.1
2018-06-21T00:24:40.583Z,25.1
2018-06-21T00:25:36.914Z,25
2018-06-21T00:26:35.020Z,25
2018-06-21T00:27:36.379Z,25
2018-06-21T00:28:34.531Z,25
2018-06-21T00:29:34.768Z,25
2018-06-21T00:31:39.516Z,25
2018-06-21T00:32:38.712Z,25
2018-06-21T00:33:37.709Z,25
2018-06-21T00:34:49.221Z,25
2018-06-21T00:35:52.568Z,25
2018-06-21T00:36:49.967Z,25
2018-06-21T00:37:49.306Z,25
2018-06-21T00:38:48.789Z,25
2018-06-21T00:39:46.497Z,25
2018-06-21T00:39:55.728Z,25
2018-06-21T00:42:50.616Z,25
2018-06-21T00:43:51.273Z,25
2018-06-21T00:45:50.043Z,25
2018-06-21T00:46:51.935Z,25
2018-06-21T00:48:50.524Z,25
2018-06-21T00:50:48.717Z,25
2018-06-21T00:51:47.525Z,25
2018-06-21T00:52:44.730Z,25
2018-06-21T00:54:49.423Z,25
2018-06-21T00:54:58.598Z,25
2018-06-21T00:55:56.115Z,25
2018-06-21T00:58:12.555Z,25
2018-06-21T01:04:10.226Z,25
2018-06-21T01:06:08.759Z,25
2018-06-21T01:07:10.404Z,25
2018-06-21T01:09:10.906Z,25
2018-06-21T01:09:19.095Z,25
2018-06-21T01:10:19.059Z,25
2018-06-21T01:11:23.160Z,25
2018-06-21T01:12:20.534Z,25
2018-06-21T01:15:14.618Z,24.9
2018-06-21T01:16:15.408Z,25
2018-06-21T01:17:13.404Z,24.9
2018-06-21T01:20:21.362Z,25
2018-06-21T01:21:23.243Z,24.9
2018-06-21T01:22:21.601Z,24.9
2018-06-21T01:24:27.383Z,25
2018-06-21T01:25:27.239Z,25
2018-06-21T01:26:25.112Z,24.9
2018-06-21T01:26:34.353Z,24.9
2018-06-21T01:27:39.447Z,24.9
2018-06-21T01:28:37.251Z,24.9
2018-06-21T01:29:39.469Z,25
2018-06-21T01:30:35.068Z,24.9
2018-06-21T01:31:41.281Z,24.9
2018-06-21T01:32:44.877Z,24.9
2018-06-21T01:33:43.189Z,24.9
2018-06-21T01:34:41.311Z,24.9
2018-06-21T01:35:39.395Z,24.9
2018-06-21T01:36:37.978Z,24.9
2018-06-21T01:36:46.203Z,24.9
2018-06-21T01:37:43.728Z,24.9
2018-06-21T01:38:57.515Z,24.9
2018-06-21T01:39:54.739Z,24.9
2018-06-21T01:41:06.010Z,24.9
2018-06-21T01:42:04.259Z,24.9
2018-06-21T01:43:01.607Z,24.9
2018-06-21T01:43:58.905Z,24.9
2018-06-21T01:44:57.576Z,24.9
2018-06-21T01:45:56.047Z,24.9
2018-06-21T01:46:53.580Z,24.9
2018-06-21T01:48:08.921Z,24.9
2018-06-21T01:49:08.019Z,24.9
2018-06-21T01:49:18.291Z,24.9
2018-06-21T01:50:21.594Z,24.9
2018-06-21T01:51:25.097Z,24.9
2018-06-21T01:52:27.221Z,24.9
2018-06-21T01:53:26.644Z,24.9
2018-06-21T01:54:29.720Z,24.9
2018-06-21T01:55:27.442Z,24.9
2018-06-21T01:56:25.004Z,24.9
2018-06-21T01:57:23.554Z,24.9
2018-06-21T01:58:25.892Z,24.9
2018-06-21T01:59:24.229Z,24.9
2018-06-21T02:00:26.131Z,24.8
2018-06-21T02:01:33.652Z,24.9
2018-06-21T02:02:34.207Z,24.9
2018-06-21T02:03:31.706Z,24.9
2018-06-21T02:04:33.410Z,24.9
2018-06-21T02:05:35.586Z,24.8
2018-06-21T02:06:40.123Z,24.8
2018-06-21T02:06:49.303Z,24.8
2018-06-21T02:07:48.981Z,24.8
2018-06-21T02:08:48.783Z,24.8
2018-06-21T02:09:46.353Z,24.8
2018-06-21T02:10:49.010Z,24.9
2018-06-21T02:11:47.536Z,24.9
2018-06-21T02:12:53.535Z,24.8
2018-06-21T02:13:52.023Z,24.8
2018-06-21T02:14:50.171Z,24.8
2018-06-21T02:15:48.293Z,24.8
2018-06-21T02:16:47.002Z,24.8
2018-06-21T02:17:44.440Z,24.8
2018-06-21T02:18:42.798Z,24.8
2018-06-21T02:19:52.011Z,24.8
2018-06-21T02:20:47.170Z,24.8
2018-06-21T02:21:45.181Z,24.8
2018-06-21T02:22:45.180Z,24.8
2018-06-21T02:23:44.094Z,24.8
2018-06-21T02:24:43.200Z,24.8
2018-06-21T02:25:46.436Z,24.8
2018-06-21T02:26:42.379Z,24.8
2018-06-21T02:27:44.552Z,24.8
2018-06-21T02:28:42.612Z,24.8
2018-06-21T02:29:41.666Z,24.8
2018-06-21T02:30:40.410Z,24.8
2018-06-21T02:31:40.934Z,24.8
2018-06-21T02:32:38.822Z,24.8
2018-06-21T02:33:41.079Z,24.8
2018-06-21T02:34:47.035Z,24.8
2018-06-21T02:35:47.132Z,24.8
2018-06-21T02:35:55.839Z,24.8
2018-06-21T02:36:54.305Z,24.8
2018-06-21T02:37:53.600Z,24.8
2018-06-21T02:38:53.200Z,24.8
2018-06-21T02:39:50.449Z,24.8
2018-06-21T02:40:48.615Z,24.8
2018-06-21T02:41:51.059Z,24.8
2018-06-21T02:42:49.015Z,24.7
2018-06-21T02:43:47.716Z,24.8
2018-06-21T02:44:46.413Z,24.8
2018-06-21T02:45:52.386Z,24.8
2018-06-21T02:46:52.242Z,24.7
2018-06-21T02:47:50.740Z,24.7
2018-06-21T02:48:48.738Z,24.7
2018-06-21T02:49:50.536Z,24.7
2018-06-21T02:49:58.774Z,24.7
2018-06-21T02:50:58.805Z,24.8
2018-06-21T02:52:00.152Z,24.8
2018-06-21T02:53:06.660Z,24.8
2018-06-21T02:54:08.498Z,24.7
2018-06-21T02:55:08.157Z,24.7
2018-06-21T02:56:05.952Z,24.7
2018-06-21T02:57:04.861Z,24.8
2018-06-21T02:58:03.893Z,24.8
2018-06-21T02:59:04.386Z,24.7
2018-06-21T03:00:03.443Z,24.7
2018-06-21T03:01:07.328Z,24.7
2018-06-21T03:02:05.209Z,24.7
2018-06-21T03:02:14.076Z,24.7
2018-06-21T03:03:10.659Z,24.7
2018-06-21T03:04:09.232Z,24.7
2018-06-21T03:05:09.967Z,24.7
2018-06-21T03:06:08.080Z,24.7
2018-06-21T03:07:06.104Z,24.7
2018-06-21T03:08:06.808Z,24.7
2018-06-21T03:09:16.744Z,24.7
2018-06-21T03:10:16.524Z,24.7
2018-06-21T03:11:17.577Z,24.7
2018-06-21T03:12:16.496Z,24.7
2018-06-21T03:13:13.793Z,24.7
2018-06-21T03:14:20.929Z,24.7
2018-06-21T03:15:22.827Z,24.7
2018-06-21T03:16:25.998Z,24.7
2018-06-21T03:17:27.980Z,24.7
2018-06-21T03:17:36.341Z,24.7
2018-06-21T03:18:33.510Z,24.7
2018-06-21T03:19:33.685Z,24.7
2018-06-21T03:20:39.664Z,24.7
2018-06-21T03:21:40.018Z,24.7
2018-06-21T03:22:39.851Z,24.7
2018-06-21T03:23:37.961Z,24.7
2018-06-21T03:24:40.676Z,24.7
2018-06-21T03:25:38.313Z,24.7
2018-06-21T03:26:35.921Z,24.7
2018-06-21T03:27:33.324Z,24.7
2018-06-21T03:28:30.947Z,24.7
2018-06-21T03:29:35.290Z,24.7
2018-06-21T03:30:34.372Z,24.7
2018-06-21T03:30:43.206Z,24.7
2018-06-21T03:31:39.709Z,24.7
2018-06-21T03:32:46.001Z,24.7
2018-06-21T03:33:39.715Z,24.7
2018-06-21T03:34:39.036Z,24.7
2018-06-21T03:35:45.763Z,24.7
2018-06-21T03:36:45.142Z,24.7
2018-06-21T03:37:44.954Z,24.7
2018-06-21T03:38:44.062Z,24.7
2018-06-21T03:39:52.453Z,24.7
2018-06-21T03:40:50.692Z,24.7
2018-06-21T03:41:48.184Z,24.7
2018-06-21T03:42:49.677Z,24.7
2018-06-21T03:43:51.467Z,24.7
2018-06-21T03:44:48.789Z,24.7
2018-06-21T03:45:46.541Z,24.7
2018-06-21T03:45:55.254Z,24.7
2018-06-21T03:47:55.801Z,24.7
2018-06-21T03:48:56.687Z,24.7
2018-06-21T03:49:56.336Z,24.7
2018-06-21T03:50:54.070Z,24.7
2018-06-21T03:52:54.633Z,24.7
2018-06-21T03:53:55.980Z,24.7
2018-06-21T03:54:55.530Z,24.7
2018-06-21T03:55:57.800Z,24.7
2018-06-21T03:56:59.122Z,24.7
2018-06-21T03:57:07.303Z,24.7
2018-06-21T03:58:07.873Z,24.7
2018-06-21T03:59:06.890Z,24.7
2018-06-21T04:01:02.780Z,24.7
2018-06-21T04:03:03.964Z,24.7
2018-06-21T04:04:06.078Z,24.7
2018-06-21T04:05:09.084Z,24.7
2018-06-21T04:06:12.232Z,24.7
2018-06-21T04:07:08.612Z,24.7
2018-06-21T04:09:19.966Z,24.6
2018-06-21T04:10:20.254Z,24.7
2018-06-21T04:11:23.923Z,24.6
2018-06-21T04:12:22.561Z,24.7
2018-06-21T04:12:30.745Z,24.7
2018-06-21T04:13:28.480Z,24.6
2018-06-21T04:14:32.513Z,24.7
2018-06-21T04:15:39.063Z,24.7
2018-06-21T04:16:35.152Z,24.7
2018-06-21T04:17:42.513Z,24.6
2018-06-21T04:18:46.328Z,24.7
2018-06-21T04:19:46.739Z,24.6
2018-06-21T04:20:45.039Z,24.6
2018-06-21T04:21:43.799Z,24.6
2018-06-21T04:24:36.821Z,24.7
2018-06-21T04:25:41.924Z,24.7
2018-06-21T04:26:39.837Z,24.6
2018-06-21T04:28:35.723Z,24.6
2018-06-21T04:29:40.144Z,24.6
2018-06-21T04:29:49.298Z,24.6
2018-06-21T04:30:53.984Z,24.6
2018-06-21T04:31:55.668Z,24.6
2018-06-21T04:32:53.545Z,24.6
2018-06-21T04:33:51.853Z,24.6
2018-06-21T04:34:52.854Z,24.6
2018-06-21T04:36:01.497Z,24.6
2018-06-21T04:37:00.196Z,24.6
2018-06-21T04:37:58.308Z,24.6
2018-06-21T04:39:05.544Z,24.6
2018-06-21T04:40:04.461Z,24.6
2018-06-21T04:41:03.514Z,24.6
2018-06-21T04:42:04.080Z,24.6
2018-06-21T04:42:12.343Z,24.6
2018-06-21T04:43:18.628Z,24.6
2018-06-21T04:44:21.344Z,24.6
2018-06-21T04:45:28.642Z,24.6
2018-06-21T04:46:27.319Z,24.6
2018-06-21T04:47:25.675Z,24.6
2018-06-21T04:48:29.094Z,24.6
2018-06-21T04:49:30.175Z,24.6
2018-06-21T04:50:38.299Z,24.6
2018-06-21T04:51:39.912Z,24.6
2018-06-21T04:52:42.424Z,24.6
2018-06-21T04:53:50.058Z,24.6
2018-06-21T04:54:47.823Z,24.6
2018-06-21T04:55:45.319Z,24.6
2018-06-21T04:56:47.671Z,24.6
2018-06-21T04:58:44.193Z,24.5
2018-06-21T05:00:46.511Z,24.5
2018-06-21T05:02:44.188Z,24.5
2018-06-21T05:03:43.727Z,24.6
2018-06-21T05:04:43.875Z,24.6
2018-06-21T05:05:46.866Z,24.5
2018-06-21T05:06:53.748Z,24.6
2018-06-21T05:08:00.215Z,24.5
2018-06-21T05:10:59.587Z,24.6
2018-06-21T05:12:04.067Z,24.6
2018-06-21T05:13:04.516Z,24.6
2018-06-21T05:14:04.701Z,24.5
2018-06-21T05:16:03.914Z,24.5
2018-06-21T05:16:13.143Z,24.5
2018-06-21T05:17:09.007Z,24.6
2018-06-21T05:18:06.484Z,24.5
2018-06-21T05:19:12.801Z,24.5
2018-06-21T05:20:10.954Z,24.5
2018-06-21T05:21:11.238Z,24.5
2018-06-21T05:23:07.254Z,24.5
2018-06-21T05:25:09.246Z,24.5
2018-06-21T05:26:08.050Z,24.5
2018-06-21T05:27:05.663Z,24.5
2018-06-21T05:28:07.435Z,24.5
2018-06-21T05:29:14.430Z,24.5
2018-06-21T05:30:18.455Z,24.5
2018-06-21T05:31:20.777Z,24.5
2018-06-21T05:32:18.653Z,24.5
2018-06-21T05:34:16.991Z,24.5
2018-06-21T05:35:14.369Z,24.5
2018-06-21T05:36:13.561Z,24.5
2018-06-21T05:37:13.241Z,24.5
2018-06-21T05:40:12.344Z,24.5
2018-06-21T05:41:10.325Z,24.5
2018-06-21T05:42:07.464Z,24.5
2018-06-21T05:43:06.400Z,24.5
2018-06-21T05:44:05.066Z,24.5
2018-06-21T05:45:02.932Z,24.5
2018-06-21T05:46:03.154Z,24.5
2018-06-21T05:47:03.356Z,24.5
2018-06-21T05:48:00.651Z,24.5
2018-06-21T05:48:58.443Z,24.5
2018-06-21T05:49:56.177Z,24.5
2018-06-21T05:50:06.473Z,24.5
2018-06-21T05:51:01.874Z,24.5
2018-06-21T05:52:16.952Z,24.5
2018-06-21T05:53:16.116Z,24.5
2018-06-21T05:55:13.113Z,24.5
2018-06-21T05:56:10.832Z,24.4
2018-06-21T05:57:09.624Z,24.4
2018-06-21T05:58:08.352Z,24.3
2018-06-21T05:59:06.028Z,24.3
2018-06-21T06:00:07.780Z,24.2
2018-06-21T06:01:07.794Z,24.1
2018-06-21T06:03:14.327Z,24
2018-06-21T06:03:22.579Z,23.9
2018-06-21T06:04:19.286Z,23.9
2018-06-21T06:05:26.080Z,23.8
2018-06-21T06:06:21.261Z,23.7
2018-06-21T06:07:20.178Z,23.7
2018-06-21T06:09:17.040Z,23.6
2018-06-21T06:10:15.730Z,23.6
2018-06-21T06:11:14.405Z,23.6
2018-06-21T06:12:11.854Z,23.6
2018-06-21T06:13:09.513Z,23.6
2018-06-21T06:14:10.172Z,23.6
2018-06-21T06:15:05.296Z,23.6
2018-06-21T06:16:02.771Z,23.6
2018-06-21T06:17:06.666Z,23.7
2018-06-21T06:18:05.827Z,23.7
2018-06-21T06:19:04.340Z,23.7
2018-06-21T06:19:12.563Z,23.7
2018-06-21T06:19:55.970Z,23.7
2018-06-21T06:20:54.684Z,23.7
2018-06-21T06:21:52.977Z,23.8
2018-06-21T06:22:52.547Z,23.8
2018-06-21T06:23:52.392Z,23.8
2018-06-21T06:24:50.502Z,23.8
2018-06-21T06:25:48.329Z,23.8
2018-06-21T06:26:48.363Z,23.8
2018-06-21T06:27:53.858Z,23.9
2018-06-21T06:28:51.104Z,23.9
2018-06-21T06:29:48.948Z,23.9
2018-06-21T06:30:49.894Z,23.9
2018-06-21T06:31:58.370Z,23.9
2018-06-21T06:32:07.481Z,23.9
2018-06-21T06:33:03.715Z,23.9
2018-06-21T06:34:07.867Z,24
2018-06-21T06:35:05.135Z,24
2018-06-21T06:36:03.090Z,24
2018-06-21T06:37:02.745Z,24
2018-06-21T06:38:00.385Z,24
2018-06-21T06:38:58.779Z,24
2018-06-21T06:39:57.308Z,24
2018-06-21T06:40:58.803Z,24
2018-06-21T06:41:59.346Z,24.1
2018-06-21T06:42:59.681Z,24.1
2018-06-21T06:43:55.883Z,24.1
2018-06-21T06:44:55.456Z,24.1
2018-06-21T06:45:56.861Z,24.1
2018-06-21T06:46:56.180Z,24.1
2018-06-21T06:47:53.569Z,24.1
2018-06-21T06:48:52.819Z,24.1
2018-06-21T06:49:01.204Z,24.1
2018-06-21T06:50:03.899Z,24.1
2018-06-21T06:51:09.194Z,24.1
2018-06-21T06:52:08.546Z,24.1
2018-06-21T06:53:06.542Z,24.1
2018-06-21T06:54:03.987Z,24.1
2018-06-21T06:55:05.343Z,24.1
2018-06-21T06:56:06.690Z,24.2
2018-06-21T06:57:05.547Z,24.2
2018-06-21T06:58:10.379Z,24.2
2018-06-21T06:59:12.577Z,24.2
2018-06-21T07:00:10.392Z,24.2
2018-06-21T07:01:10.622Z,24.2
2018-06-21T07:02:07.955Z,24.2
2018-06-21T07:02:17.139Z,24.2
2018-06-21T07:03:13.417Z,24.2
2018-06-21T07:04:12.946Z,24.2
2018-06-21T07:05:17.953Z,24.2
2018-06-21T07:06:11.743Z,24.2
2018-06-21T07:07:09.157Z,24.2
2018-06-21T07:08:06.952Z,24.2
2018-06-21T07:09:05.168Z,24.2
2018-06-21T07:10:09.080Z,24.2
2018-06-21T07:11:07.053Z,24.2
2018-06-21T07:12:15.025Z,24.2
2018-06-21T07:13:19.545Z,24.2
2018-06-21T07:14:19.776Z,24.2
2018-06-21T07:15:17.944Z,24.2
2018-06-21T07:16:16.031Z,24.2
2018-06-21T07:17:14.988Z,24.2
2018-06-21T07:18:14.305Z,24.2
2018-06-21T07:19:13.420Z,24.2
2018-06-21T07:20:11.467Z,24.2
2018-06-21T07:21:10.597Z,24.3
2018-06-21T07:22:08.928Z,24.3
2018-06-21T07:23:06.480Z,24.2
2018-06-21T07:24:17.451Z,24.3
2018-06-21T07:25:21.082Z,24.3
2018-06-21T07:26:21.411Z,24.2
2018-06-21T07:27:21.455Z,24.3
2018-06-21T07:28:18.836Z,24.3
2018-06-21T07:29:16.309Z,24.3
2018-06-21T07:30:16.974Z,24.3
2018-06-21T07:31:18.508Z,24.3
2018-06-21T07:32:24.807Z,24.2
2018-06-21T07:33:23.335Z,24.3
2018-06-21T07:34:25.238Z,24.2
2018-06-21T07:34:32.930Z,24.3
2018-06-21T07:35:31.298Z,24.2
2018-06-21T07:36:31.064Z,24.3
2018-06-21T07:38:35.180Z,24.3
2018-06-21T07:40:38.392Z,24.3
2018-06-21T07:42:33.156Z,24.3
2018-06-21T07:43:39.507Z,24.3
2018-06-21T07:44:37.905Z,24.3
2018-06-21T07:45:43.063Z,24.3
2018-06-21T07:46:43.479Z,24.3
2018-06-21T07:47:41.013Z,24.3
2018-06-21T07:48:43.341Z,24.3
2018-06-21T07:49:44.569Z,24.3
2018-06-21T07:50:53.323Z,24.3
2018-06-21T07:51:55.123Z,24.3
2018-06-21T07:52:56.389Z,24.3
2018-06-21T07:53:54.252Z,24.3
2018-06-21T07:55:54.812Z,24.3
2018-06-21T07:57:56.324Z,24.3
2018-06-21T07:58:54.781Z,24.3
2018-06-21T07:59:59.535Z,24.3
2018-06-21T08:00:59.320Z,24.3
2018-06-21T08:01:58.375Z,24.3
2018-06-21T08:02:56.579Z,24.3
2018-06-21T08:05:53.107Z,24.3
2018-06-21T08:06:02.222Z,24.3
2018-06-21T08:08:00.167Z,24.3
2018-06-21T08:10:07.575Z,24.3
2018-06-21T08:11:20.193Z,24.3
2018-06-21T08:12:19.136Z,24.3
2018-06-21T08:13:34.419Z,24.3
2018-06-21T08:14:34.260Z,24.3
2018-06-21T08:15:36.837Z,24.3
2018-06-21T08:16:32.695Z,24.3
2018-06-21T08:17:30.431Z,24.3
2018-06-21T08:18:30.788Z,24.3
2018-06-21T08:20:27.022Z,24.3
2018-06-21T08:22:26.286Z,24.3
2018-06-21T08:23:28.208Z,24.3
2018-06-21T08:24:32.120Z,24.3
2018-06-21T08:26:34.136Z,24.3
2018-06-21T08:27:45.904Z,24.3
2018-06-21T08:28:44.730Z,24.3
2018-06-21T08:29:42.181Z,24.3
2018-06-21T08:30:42.545Z,24.3
2018-06-21T08:31:42.808Z,24.3
2018-06-21T08:32:45.534Z,24.3
2018-06-21T08:33:43.747Z,24.3
2018-06-21T08:34:49.462Z,24.3
2018-06-21T08:35:49.737Z,24.3
2018-06-21T08:36:50.178Z,24.3
2018-06-21T08:37:51.721Z,24.4
2018-06-21T08:38:55.428Z,24.4
2018-06-21T08:40:00.545Z,24.4
2018-06-21T08:40:58.913Z,24.4
2018-06-21T08:41:58.327Z,24.4
2018-06-21T08:43:04.163Z,24.4
2018-06-21T08:43:58.928Z,24.4
2018-06-21T08:44:58.469Z,24.4
2018-06-21T08:46:00.326Z,24.4
2018-06-21T08:47:04.238Z,24.4
2018-06-21T08:48:06.203Z,24.4
2018-06-21T08:49:04.909Z,24.4
2018-06-21T08:50:16.761Z,24.4
2018-06-21T08:51:14.519Z,24.4
2018-06-21T08:52:16.284Z,24.4
2018-06-21T08:53:16.780Z,24.4
2018-06-21T08:54:25.583Z,24.5
2018-06-21T08:56:29.915Z,24.5
2018-06-21T08:58:25.245Z,24.5
2018-06-21T08:59:26.317Z,24.5
2018-06-21T09:00:24.458Z,24.5
2018-06-21T09:01:26.911Z,24.5
2018-06-21T09:02:24.200Z,24.5
2018-06-21T09:03:23.705Z,24.5
2018-06-21T09:04:23.357Z,24.5
2018-06-21T09:05:20.742Z,24.5
2018-06-21T09:06:19.521Z,24.5
2018-06-21T09:08:17.427Z,24.5
2018-06-21T09:10:17.818Z,24.5
2018-06-21T09:11:22.058Z,24.6
2018-06-21T09:12:27.111Z,24.6
2018-06-21T09:12:35.257Z,24.5
2018-06-21T09:13:34.311Z,24.5
2018-06-21T09:14:32.249Z,24.5
2018-06-21T09:15:31.053Z,24.6
2018-06-21T09:16:30.730Z,24.6
2018-06-21T09:17:29.090Z,24.6
2018-06-21T09:18:30.694Z,24.6
2018-06-21T09:19:40.178Z,24.6
2018-06-21T09:20:39.440Z,24.6
2018-06-21T09:21:37.131Z,24.6
2018-06-21T09:22:38.277Z,24.6
2018-06-21T09:23:32.920Z,24.6
2018-06-21T09:24:36.205Z,24.6
2018-06-21T09:25:37.492Z,24.6
2018-06-21T09:26:39.668Z,24.6
2018-06-21T09:28:40.200Z,24.6
2018-06-21T09:29:40.078Z,24.7
2018-06-21T09:31:16.878Z,24.6
2018-06-21T09:33:46.777Z,24.7
2018-06-21T09:35:00.691Z,24.7
2018-06-21T09:36:23.049Z,24.7
2018-06-21T09:37:37.299Z,24.7
2018-06-21T09:41:24.162Z,24.7
2018-06-21T09:44:03.820Z,24.7
2018-06-21T09:44:03.827Z,24.7
2018-06-21T09:45:18.195Z,24.7
2018-06-21T09:47:48.915Z,24.7
2018-06-21T09:49:03.201Z,24.8
2018-06-21T09:51:31.941Z,24.8
2018-06-21T09:55:15.817Z,24.8
2018-06-21T09:57:46.571Z,24.8
2018-06-21T09:59:01.897Z,24.9
2018-06-21T10:00:15.785Z,24.9
2018-06-21T10:01:30.061Z,24.9
2018-06-21T10:02:44.255Z,24.9
2018-06-21T10:03:59.419Z,24.9
2018-06-21T10:05:14.711Z,24.9
2018-06-21T10:06:30.027Z,24.9
2018-06-21T10:08:58.561Z,25
2018-06-21T10:10:12.935Z,25
2018-06-21T10:11:27.123Z,25
2018-06-21T10:13:59.600Z,25
2018-06-21T10:20:12.000Z,25.1
2018-06-21T10:21:26.173Z,25.1
2018-06-21T10:22:41.356Z,25.1
2018-06-21T10:23:56.309Z,25.1
2018-06-21T10:26:24.794Z,25.1
2018-06-21T10:27:39.965Z,25.1
2018-06-21T10:36:22.134Z,25.2
2018-06-21T10:37:36.408Z,25.1
2018-06-21T10:38:50.789Z,25.2
2018-06-21T10:40:05.216Z,25.2
2018-06-21T10:41:19.460Z,25.2
2018-06-21T10:45:03.279Z,25.2
2018-06-21T10:46:18.605Z,25.2
2018-06-21T10:47:33.990Z,25.2
2018-06-21T10:48:48.283Z,25.2
2018-06-21T10:50:04.228Z,25.2
2018-06-21T10:51:19.431Z,25.2
2018-06-21T10:52:34.836Z,25.2
2018-06-21T10:53:50.096Z,25.3
2018-06-21T10:55:08.584Z,25.3
2018-06-21T10:56:24.871Z,25.3
2018-06-21T10:58:54.639Z,25.3
2018-06-21T11:00:09.019Z,25.3
2018-06-21T11:01:23.204Z,25.3
2018-06-21T11:02:37.594Z,25.2
2018-06-21T11:03:51.888Z,25.3
2018-06-21T11:05:07.060Z,25.3
2018-06-21T11:07:37.827Z,25.3
2018-06-21T11:08:53.148Z,25.3
2018-06-21T11:10:08.385Z,25.3
2018-06-21T11:11:24.672Z,25.3
2018-06-21T11:12:38.985Z,25.3
2018-06-21T11:15:07.643Z,25.3
2018-06-21T11:17:36.298Z,25.3
2018-06-21T11:21:19.711Z,25.3
2018-06-21T11:22:33.936Z,25.3
2018-06-21T11:23:48.117Z,25.3
2018-06-21T11:25:03.365Z,25.3
2018-06-21T11:26:18.580Z,25.3
2018-06-21T11:27:33.869Z,25.3
2018-06-21T11:28:48.060Z,25.3
2018-06-21T11:30:02.437Z,25.3
2018-06-21T11:32:31.211Z,25.3
2018-06-21T11:33:45.503Z,25.3
2018-06-21T11:35:02.786Z,25.3
2018-06-21T11:36:17.885Z,25.3
2018-06-21T11:37:33.158Z,25.3
2018-06-21T11:38:48.448Z,25.3
2018-06-21T11:41:16.911Z,25.3
2018-06-21T11:43:47.166Z,25.3
2018-06-21T11:45:01.177Z,25.3
2018-06-21T11:47:29.767Z,25.3
2018-06-21T11:48:43.813Z,25.3
2018-06-21T11:52:28.806Z,25.3
2018-06-21T11:54:57.385Z,25.3
2018-06-21T11:56:11.641Z,25.3
2018-06-21T11:57:25.866Z,25.3
2018-06-21T11:58:40.222Z,25.3
2018-06-21T11:59:54.615Z,25.3
2018-06-21T12:01:08.987Z,25.3
2018-06-21T12:02:24.269Z,25.3
2018-06-21T12:03:42.584Z,25.3
2018-06-21T12:04:58.056Z,25.3
2018-06-21T12:06:13.447Z,25.3
2018-06-21T12:07:28.832Z,25.3
2018-06-21T12:08:44.289Z,25.3
2018-06-21T12:09:59.515Z,25.3
2018-06-21T12:11:14.793Z,25.3
2018-06-21T12:12:29.094Z,25.3
2018-06-21T12:13:43.384Z,25.3
2018-06-21T12:14:57.672Z,25.3
2018-06-21T12:16:12.049Z,25.3
2018-06-21T12:17:26.524Z,25.3
2018-06-21T12:18:40.923Z,25.3
2018-06-21T12:19:55.293Z,25.4
2018-06-21T12:21:09.583Z,25.3
2018-06-21T12:22:23.872Z,25.4
2018-06-21T12:23:38.262Z,25.4
2018-06-21T12:24:52.537Z,25.3
2018-06-21T12:26:07.754Z,25.3
2018-06-21T12:27:22.214Z,25.3
2018-06-21T12:28:36.689Z,25.3
2018-06-21T12:29:51.173Z,25.3
2018-06-21T12:31:05.462Z,25.3
2018-06-21T12:32:19.745Z,25.3
2018-06-21T12:33:34.943Z,25.3
2018-06-21T12:34:50.124Z,25.3
2018-06-21T12:36:03.985Z,25.3
2018-06-21T12:37:18.300Z,25.3
2018-06-21T12:38:32.696Z,25.4
2018-06-21T12:39:47.164Z,25.4
2018-06-21T12:41:01.459Z,25.4
2018-06-21T12:42:16.646Z,25.4
2018-06-21T12:43:31.956Z,25.4
2018-06-21T12:44:46.613Z,25.4
2018-06-21T12:46:01.900Z,25.4
2018-06-21T12:47:17.090Z,25.4
2018-06-21T12:48:31.190Z,25.4
2018-06-21T12:49:45.370Z,25.4
2018-06-21T12:50:59.666Z,25.4
2018-06-21T12:52:14.865Z,25.4
2018-06-21T12:53:29.256Z,25.4
2018-06-21T12:54:44.557Z,25.4
2018-06-21T12:56:00.043Z,25.4
2018-06-21T12:57:15.343Z,25.4
2018-06-21T12:58:30.777Z,25.4
2018-06-21T12:59:44.720Z,25.4
2018-06-21T13:00:58.934Z,25.4
2018-06-21T13:02:13.331Z,25.4
2018-06-21T13:03:27.735Z,25.4
2018-06-21T13:04:42.144Z,25.4
2018-06-21T13:05:57.340Z,25.4
2018-06-21T13:07:12.643Z,25.4
2018-06-21T13:08:27.357Z,25.4
2018-06-21T13:09:41.618Z,25.4
2018-06-21T13:10:56.909Z,25.4
2018-06-21T13:12:12.103Z,25.4
2018-06-21T13:15:36.764Z,25.4
2018-06-21T13:16:51.944Z,25.4
2018-06-21T13:18:07.342Z,25.4
2018-06-21T13:19:21.638Z,25.4
2018-06-21T13:20:35.927Z,25.4
2018-06-21T13:21:50.333Z,25.4
2018-06-21T13:23:04.609Z,25.4
2018-06-21T13:24:19.035Z,25.4
2018-06-21T13:25:33.096Z,25.4
2018-06-21T13:26:47.594Z,25.4
2018-06-21T13:28:02.068Z,25.4
2018-06-21T13:29:15.911Z,25.4
2018-06-21T13:30:30.042Z,25.4
2018-06-21T13:31:44.522Z,25.4
2018-06-21T13:32:59.926Z,25.3
2018-06-21T13:34:15.301Z,25.3
2018-06-21T13:35:29.592Z,25.2
2018-06-21T13:36:45.977Z,25.2
2018-06-21T13:38:00.281Z,25.2
2018-06-21T13:40:31.245Z,25.1
2018-06-21T13:41:45.527Z,25
2018-06-21T13:42:59.820Z,25
2018-06-21T13:44:14.285Z,24.9
2018-06-21T13:45:28.678Z,24.9
2018-06-21T13:46:42.967Z,24.8
2018-06-21T13:47:57.258Z,24.8
2018-06-21T13:49:11.636Z,24.7
2018-06-21T13:50:26.741Z,24.5
2018-06-21T13:51:41.992Z,24.4
2018-06-21T13:52:57.476Z,24.2
2018-06-21T13:54:12.807Z,24
2018-06-21T13:55:28.320Z,23.8
2018-06-21T13:57:59.273Z,23.6
2018-06-21T13:59:14.752Z,23.5
2018-06-21T14:00:30.004Z,23.5
2018-06-21T14:01:44.072Z,23.4
2018-06-21T14:04:12.522Z,23.3
2018-06-21T14:05:26.898Z,23.3
2018-06-21T14:06:42.171Z,23.3
2018-06-21T14:07:57.639Z,23.3
2018-06-21T14:10:28.399Z,23.4
2018-06-21T14:11:43.771Z,23.4
2018-06-21T14:12:59.055Z,23.4
2018-06-21T14:14:14.305Z,23.3
2018-06-21T14:15:29.715Z,23.3
2018-06-21T14:16:44.598Z,23.2
2018-06-21T14:17:59.625Z,23.2
2018-06-21T14:19:15.050Z,23.1
2018-06-21T14:20:30.222Z,23
2018-06-21T14:21:46.387Z,23
2018-06-21T14:23:00.760Z,23
2018-06-21T14:24:15.131Z,22.9
2018-06-21T14:25:29.501Z,22.8
2018-06-21T14:26:43.995Z,22.7
2018-06-21T14:28:00.345Z,22.6
2018-06-21T14:29:15.515Z,22.6
2018-06-21T14:30:30.890Z,22.4
2018-06-21T14:31:45.429Z,22.3
2018-06-21T14:33:00.647Z,22.3
2018-06-21T14:34:15.913Z,22.2
2018-06-21T14:35:31.274Z,22.2
2018-06-21T14:36:46.651Z,22.2
2018-06-21T14:39:16.384Z,22
2018-06-21T14:40:31.753Z,22
2018-06-21T14:41:47.010Z,22
2018-06-21T14:43:01.297Z,22
2018-06-21T14:44:15.459Z,22
2018-06-21T14:45:30.724Z,22
2018-06-21T14:46:54.088Z,21.9
2018-06-21T14:48:08.700Z,21.9
2018-06-21T14:49:24.135Z,21.9
2018-06-21T14:50:39.486Z,21.9
2018-06-21T14:51:54.752Z,21.9
2018-06-21T14:53:10.228Z,21.9
2018-06-21T14:55:39.650Z,22
2018-06-21T14:56:53.281Z,22
2018-06-21T14:58:08.558Z,22
2018-06-21T14:59:22.809Z,21.9
2018-06-21T15:00:38.210Z,21.9
2018-06-21T15:03:06.520Z,21.9
2018-06-21T15:05:35.982Z,22
2018-06-21T15:06:51.231Z,22.1
2018-06-21T15:08:07.491Z,22.1
2018-06-21T15:09:21.670Z,22.2
2018-06-21T15:10:36.010Z,22.3
2018-06-21T15:11:50.370Z,22.3
2018-06-21T15:13:04.848Z,22.4
2018-06-21T15:14:19.131Z,22.5
2018-06-21T15:15:33.486Z,22.5
2018-06-21T15:16:47.946Z,22.6
2018-06-21T15:18:03.238Z,22.7
2018-06-21T15:19:18.411Z,22.7
2018-06-21T15:20:33.785Z,22.8
2018-06-21T15:21:49.243Z,22.8
2018-06-21T15:23:04.681Z,22.9
2018-06-21T15:24:19.880Z,23
2018-06-21T15:28:03.605Z,23.1
2018-06-21T15:31:49.343Z,23.2
2018-06-21T15:35:35.248Z,23.3
2018-06-21T15:36:49.647Z,23.4
2018-06-21T15:38:04.117Z,23.4
2018-06-21T15:39:18.204Z,23.5
2018-06-21T15:40:33.376Z,23.5
2018-06-21T15:41:48.677Z,23.5
2018-06-21T15:43:03.850Z,23.6
2018-06-21T15:44:17.903Z,23.6
2018-06-21T15:46:51.418Z,23.6
2018-06-21T15:48:06.899Z,23.7
2018-06-21T15:51:51.196Z,23.7
2018-06-21T15:53:06.449Z,23.8
2018-06-21T15:54:21.825Z,23.8
2018-06-21T15:55:45.217Z,23.8
2018-06-21T15:57:00.612Z,23.8
2018-06-21T15:58:16.097Z,23.9
2018-06-21T15:59:31.483Z,23.9
2018-06-21T16:00:46.072Z,23.9
2018-06-21T16:02:01.449Z,23.9
2018-06-21T16:03:16.739Z,23.9
2018-06-21T16:04:32.017Z,24
2018-06-21T16:05:46.300Z,24
2018-06-21T16:07:00.684Z,24
2018-06-21T16:08:14.981Z,24
2018-06-21T16:09:30.146Z,24.1
2018-06-21T16:10:45.544Z,24.1
2018-06-21T16:12:00.632Z,24.1
2018-06-21T16:13:15.921Z,24.1
2018-06-21T16:14:30.120Z,24.1
2018-06-21T16:15:44.225Z,24.1
2018-06-21T16:16:58.777Z,24.1
2018-06-21T16:18:14.367Z,24.2
2018-06-21T16:19:28.559Z,24.1